| Date | Time | Temp. (oF) | Dew Point (oF) | Rel. Hum. (%) | Press. (in.) | Wind Dir. | Wind Speed (mph) | Hourly Rainfall (in.) |
|
|---|---|---|---|---|---|---|---|---|---|
| 1 | 04/12 | 00:00 | 41 | 21 | 45 | 30.12 | N | 7 | 0.00 |
| 2 | 04/11 | 23:00 | 43 | 23 | 46 | 30.09 | NE | 7 | 0.00 |
| 3 | 04/11 | 22:00 | 45 | 23 | 42 | 30.06 | N | 17 | 0.00 |
| 4 | 04/11 | 21:00 | 47 | 24 | 41 | 30.02 | N | 8 | 0.00 |
| 5 | 04/11 | 20:00 | 49 | 25 | 40 | 29.97 | NNE | 6 | 0.00 |
| 6 | 04/11 | 19:00 | 54 | 30 | 40 | 29.93 | NNE | 11 | 0.00 |
| 7 | 04/11 | 18:00 | 56 | 33 | 42 | 29.90 | NNW | 7 | 0.00 |
| 8 | 04/11 | 17:00 | 54 | 41 | 62 | 29.88 | NNE | 10 | 0.00 |
| 9 | 04/11 | 16:00 | 52 | 41 | 68 | 29.90 | NNE | 11 | 0.00 |
| 10 | 04/11 | 15:00 | 49 | 43 | 80 | 29.90 | NNE | 11 | 0.00 |
| 11 | 04/11 | 14:00 | 45 | 42 | 92 | 29.90 | NNW | 5 | 0.02 |
| 12 | 04/11 | 13:00 | 48 | 46 | 94 | 29.87 | NNW | 6 | 0.02 |
| 13 | 04/11 | 12:00 | 47 | 45 | 96 | 29.85 | NNE | 6 | 0.04 |
| 14 | 04/11 | 11:00 | 47 | 46 | 97 | 29.83 | N | 6 | 0.08 |
| 15 | 04/11 | 10:00 | 46 | 45 | 97 | 29.81 | N | 7 | 0.10 |
| 16 | 04/11 | 09:00 | 46 | 45 | 98 | 29.79 | NNE | 10 | 0.08 |
| 17 | 04/11 | 08:00 | 46 | 45 | 98 | 29.78 | NE | 8 | 0.11 |
| 18 | 04/11 | 07:00 | 46 | 44 | 96 | 29.78 | ENE | 5 | 0.08 |
| 19 | 04/11 | 06:00 | 47 | 43 | 88 | 29.78 | NNE | 5 | 0.00 |
| 20 | 04/11 | 05:00 | 48 | 41 | 79 | 29.77 | NNE | 5 | 0.00 |
| 21 | 04/11 | 04:00 | 48 | 42 | 81 | 29.79 | ENE | 5 | 0.00 |
| 22 | 04/11 | 03:00 | 48 | 43 | 84 | 29.79 | ENE | 3 | 0.00 |
| 23 | 04/11 | 02:00 | 49 | 43 | 80 | 29.81 | ESE | 2 | 0.00 |
| 24 | 04/11 | 01:00 | 50 | 42 | 75 | 29.83 | E | 6 | 0.00 |